Time;durP1;ratioP1;P1;durP2;ratioP2;P2;SDS_P1;SDS_P2;PMS_P1;PMS_P2;Temp;Humidity;BMP_temperature;BMP_pressure;BME280_temperature;BME280_humidity;BME280_pressure;Samples;Min_cycle;Max_cycle;Signal;HPM_P1;HPM_P2
2021/03/17 00:02:54;;;;;;;52.50;30.27;;;;;;;2.01;81.09;98545.27;2226318;80;21191;-89
2021/03/17 00:05:56;;;;;;;45.12;25.62;;;;;;;1.99;80.97;98544.11;2225934;80;21832;-89
2021/03/17 00:08:58;;;;;;;43.95;25.72;;;;;;;1.96;81.53;98552.13;2220344;80;21123;-89
2021/03/17 00:11:59;;;;;;;67.22;34.38;;;;;;;1.91;81.27;98554.27;2220159;80;21159;-89
2021/03/17 00:15:01;;;;;;;53.70;31.52;;;;;;;1.88;81.26;98553.71;2220037;80;21293;-89
2021/03/17 00:18:02;;;;;;;50.12;29.77;;;;;;;1.90;81.41;98557.80;2220347;80;21330;-89
2021/03/17 00:21:04;;;;;;;52.55;31.55;;;;;;;1.97;81.41;98548.59;2219470;80;21566;-90
2021/03/17 00:24:05;;;;;;;49.50;28.90;;;;;;;1.99;81.45;98544.58;2219604;80;21286;-90
2021/03/17 00:27:07;;;;;;;50.48;29.98;;;;;;;2.03;81.53;98544.69;2219310;80;21762;-88
2021/03/17 00:30:09;;;;;;;57.75;33.35;;;;;;;2.07;81.56;98548.63;2219542;80;21322;-90
2021/03/17 00:33:10;;;;;;;61.15;33.58;;;;;;;2.09;81.52;98535.58;2219425;80;21190;-89
2021/03/17 00:36:12;;;;;;;52.35;29.40;;;;;;;2.15;81.49;98547.52;2219309;80;22171;-89
2021/03/17 00:39:14;;;;;;;52.23;31.17;;;;;;;2.18;81.39;98547.72;2219381;80;21139;-90
2021/03/17 00:42:15;;;;;;;54.10;32.17;;;;;;;2.20;81.40;98544.55;2219637;80;21282;-89
2021/03/17 00:45:17;;;;;;;55.00;31.73;;;;;;;2.22;81.53;98539.59;2219803;80;21174;-89
2021/03/17 00:48:18;;;;;;;60.80;34.50;;;;;;;2.21;81.58;98538.44;2220000;80;21329;-90
2021/03/17 00:51:20;;;;;;;59.23;31.33;;;;;;;2.17;81.45;98532.70;2219990;80;21682;-89
2021/03/17 00:54:22;;;;;;;60.58;33.23;;;;;;;2.19;81.47;98540.30;2219915;80;21285;-90
2021/03/17 00:57:24;;;;;;;56.68;31.48;;;;;;;2.23;81.68;98537.34;2219681;80;21289;-89
2021/03/17 01:00:25;;;;;;;63.30;30.92;;;;;;;2.24;81.47;98544.14;2219550;80;21286;-89
2021/03/17 01:03:27;;;;;;;61.40;34.85;;;;;;;2.25;81.51;98540.61;2219536;80;21275;-90
2021/03/17 01:06:28;;;;;;;62.25;34.48;;;;;;;2.28;81.57;98538.23;2218852;80;21290;-90
2021/03/17 01:09:30;;;;;;;50.08;29.12;;;;;;;2.30;81.54;98541.52;2208639;81;22269;-89
2021/03/17 01:12:32;;;;;;;55.88;30.43;;;;;;;2.30;81.40;98538.13;2208975;81;21147;-88
2021/03/17 01:15:33;;;;;;;54.05;31.00;;;;;;;2.34;81.46;98540.30;2208919;81;21753;-89
2021/03/17 01:18:35;;;;;;;58.38;32.38;;;;;;;2.42;81.44;98537.06;2208618;81;21302;-88
2021/03/17 01:21:37;;;;;;;48.20;28.20;;;;;;;2.43;81.44;98528.36;2208965;81;21180;-88
2021/03/17 01:24:38;;;;;;;54.42;30.35;;;;;;;2.39;81.48;98539.92;2208802;81;21294;-89
2021/03/17 01:27:40;;;;;;;52.13;31.62;;;;;;;2.35;81.44;98534.66;2208541;81;21290;-89
2021/03/17 01:30:41;;;;;;;48.28;28.85;;;;;;;2.35;81.71;98534.66;2208377;81;21298;-89
2021/03/17 01:33:43;;;;;;;50.78;27.15;;;;;;;2.32;81.68;98537.03;2208368;81;21167;-88
2021/03/17 01:36:44;;;;;;;53.30;30.23;;;;;;;2.29;81.79;98529.56;2208403;81;21159;-89
2021/03/17 01:39:46;;;;;;;46.00;27.70;;;;;;;2.30;81.92;98531.67;2208659;81;21274;-88
2021/03/17 01:42:48;;;;;;;51.08;29.10;;;;;;;2.26;82.17;98533.67;2208539;81;21290;-89
2021/03/17 01:45:49;;;;;;;46.68;27.17;;;;;;;2.21;82.33;98530.20;2208398;81;21290;-89
2021/03/17 01:48:51;;;;;;;42.95;26.17;;;;;;;2.22;81.94;98533.13;2208687;81;21706;-89
2021/03/17 01:51:52;;;;;;;37.60;22.95;;;;;;;2.23;82.04;98536.53;2208920;81;21144;-89
2021/03/17 01:54:54;;;;;;;44.65;24.90;;;;;;;2.24;82.41;98541.56;2208907;81;21290;-89
2021/03/17 01:57:55;;;;;;;45.80;28.38;;;;;;;2.21;82.07;98538.44;2208880;81;21136;-89
2021/03/17 02:00:57;;;;;;;51.60;29.37;;;;;;;2.19;82.27;98536.44;2208647;81;21729;-89
2021/03/17 02:03:58;;;;;;;44.13;26.15;;;;;;;2.17;82.41;98533.98;2209013;81;21305;-89
2021/03/17 02:07:01;;;;;;;40.70;23.18;;;;;;;2.17;82.36;98539.63;2211364;80;21289;-89
2021/03/17 02:10:02;;;;;;;40.38;23.83;;;;;;;2.20;82.78;98535.52;2219534;80;21587;-89
2021/03/17 02:13:04;;;;;;;42.90;28.15;;;;;;;2.16;82.80;98537.52;2219361;80;21666;-89
2021/03/17 02:16:06;;;;;;;46.05;25.77;;;;;;;2.13;82.77;98538.27;2219389;80;21535;-87
2021/03/17 02:19:07;;;;;;;37.98;23.60;;;;;;;2.09;83.20;98548.02;2219426;80;21266;-88
2021/03/17 02:22:09;;;;;;;47.25;28.38;;;;;;;2.07;83.26;98540.88;2219423;80;21171;-88
2021/03/17 02:25:10;;;;;;;45.28;27.30;;;;;;;2.08;82.76;98540.41;2219558;80;21313;-88
2021/03/17 02:28:12;;;;;;;48.10;27.80;;;;;;;2.11;82.81;98541.46;2219192;80;21274;-89
2021/03/17 02:31:13;;;;;;;52.98;31.87;;;;;;;2.11;82.93;98539.70;2219566;80;21305;-89
2021/03/17 02:34:15;;;;;;;52.75;32.00;;;;;;;2.12;83.01;98543.09;2220806;80;21286;-90
2021/03/17 02:37:17;;;;;;;50.10;28.20;;;;;;;2.14;82.95;98537.31;2219217;80;21309;-89
2021/03/17 02:40:18;;;;;;;55.78;32.13;;;;;;;2.15;83.30;98543.64;2219207;80;21321;-90
2021/03/17 02:43:20;;;;;;;58.45;34.38;;;;;;;2.17;82.98;98548.67;2220071;80;21262;-90
2021/03/17 02:46:21;;;;;;;64.12;34.43;;;;;;;2.19;83.54;98542.89;2221480;80;21119;-90
2021/03/17 02:49:23;;;;;;;58.40;34.30;;;;;;;2.20;83.05;98542.78;2219507;80;21163;-90
2021/03/17 02:52:24;;;;;;;52.50;29.55;;;;;;;2.21;83.33;98537.14;2219364;80;21314;-90
2021/03/17 02:55:26;;;;;;;60.78;34.45;;;;;;;2.20;83.56;98538.09;2219465;80;21274;-90
2021/03/17 02:58:27;;;;;;;72.22;37.50;;;;;;;2.14;83.43;98539.42;2219375;80;21249;-90
2021/03/17 03:01:29;;;;;;;62.15;36.38;;;;;;;2.09;83.57;98535.58;2219124;80;21167;-90
2021/03/17 03:04:30;;;;;;;59.98;34.67;;;;;;;2.06;83.30;98543.60;2219134;80;21301;-89
2021/03/17 03:07:32;;;;;;;53.08;29.48;;;;;;;2.02;83.52;98543.53;2215623;80;21337;-90
2021/03/17 03:10:34;;;;;;;70.22;37.38;;;;;;;1.99;83.41;98532.48;2208490;81;21714;-90
2021/03/17 03:13:35;;;;;;;60.52;32.65;;;;;;;1.97;83.62;98547.78;2208624;81;21302;-91
2021/03/17 03:16:37;;;;;;;66.45;36.25;;;;;;;1.95;83.60;98547.09;2208844;81;21322;-89
2021/03/17 03:19:38;;;;;;;64.50;35.98;;;;;;;1.90;83.74;98553.10;2208566;81;21164;-89
2021/03/17 03:22:40;;;;;;;66.55;37.85;;;;;;;1.91;83.64;98555.55;2208657;81;21275;-89
2021/03/17 03:25:41;;;;;;;62.03;34.18;;;;;;;1.91;83.82;98568.47;2208416;81;21271;-89
2021/03/17 03:28:43;;;;;;;76.05;37.93;;;;;;;1.89;83.94;98565.20;2208824;81;21765;-89
2021/03/17 03:31:45;;;;;;;71.87;36.58;;;;;;;1.85;83.88;98556.56;2208267;81;21322;-90
2021/03/17 03:34:46;;;;;;;64.65;34.90;;;;;;;1.87;83.68;98561.12;2208462;81;21188;-89
2021/03/17 03:37:48;;;;;;;71.42;37.93;;;;;;;1.89;83.48;98572.95;2208475;81;21266;-89
2021/03/17 03:40:49;;;;;;;70.00;36.60;;;;;;;1.87;83.84;98572.27;2208119;81;21295;-89
2021/03/17 03:43:51;;;;;;;77.25;40.23;;;;;;;1.83;84.00;98571.34;2208449;81;21290;-90
2021/03/17 03:46:53;;;;;;;63.42;31.42;;;;;;;1.77;83.83;98571.39;2208514;81;21338;-90
2021/03/17 03:49:54;;;;;;;63.68;33.75;;;;;;;1.75;84.26;98577.64;2208732;81;21305;-90
2021/03/17 03:52:56;;;;;;;74.15;38.78;;;;;;;1.75;83.77;98577.16;2208877;81;21734;-90
2021/03/17 03:55:58;;;;;;;69.20;36.20;;;;;;;1.75;83.69;98580.22;2209061;81;21139;-91
2021/03/17 03:58:59;;;;;;;66.47;34.65;;;;;;;1.73;83.92;98581.61;2208807;81;21108;-90
2021/03/17 04:02:01;;;;;;;68.97;37.48;;;;;;;1.69;84.17;98590.56;2208895;81;21309;-89
2021/03/17 04:05:02;;;;;;;73.30;38.83;;;;;;;1.65;84.14;98584.03;2208717;81;21325;-90
2021/03/17 04:08:04;;;;;;;72.22;37.03;;;;;;;1.64;84.07;98588.34;2211832;80;21270;-91
2021/03/17 04:11:05;;;;;;;78.70;38.95;;;;;;;1.62;84.29;98594.59;2216308;80;21285;-91
2021/03/17 04:14:07;;;;;;;59.45;34.00;;;;;;;1.56;83.95;98590.77;2219029;80;21290;-90
2021/03/17 04:17:09;;;;;;;71.77;38.35;;;;;;;1.57;84.16;98591.59;2215995;80;21305;-90
2021/03/17 04:20:10;;;;;;;62.75;34.43;;;;;;;1.57;83.87;98590.30;2216270;80;21575;-90
2021/03/17 04:23:12;;;;;;;66.55;35.75;;;;;;;1.54;84.08;98587.47;2216105;80;21586;-90
2021/03/17 04:26:13;;;;;;;71.77;38.88;;;;;;;1.52;84.15;98593.70;2218380;80;21286;-91
2021/03/17 04:29:15;;;;;;;76.60;39.65;;;;;;;1.46;84.08;98587.27;2216048;80;21305;-91
2021/03/17 04:32:17;;;;;;;75.72;40.08;;;;;;;1.39;83.99;98600.34;2216034;80;21180;-91
2021/03/17 04:35:19;;;;;;;76.25;41.02;;;;;;;1.33;84.34;98599.07;2216197;80;21317;-91
2021/03/17 04:38:20;;;;;;;75.03;41.85;;;;;;;1.29;84.33;98592.53;2216299;80;21302;-90
2021/03/17 04:41:22;;;;;;;118.02;54.75;;;;;;;1.28;84.55;98601.22;2215866;80;21274;-90
2021/03/17 04:44:23;;;;;;;112.20;55.40;;;;;;;1.29;84.56;98601.56;2216146;80;21354;-89
2021/03/17 04:47:25;;;;;;;81.37;40.10;;;;;;;1.31;84.49;98600.15;2215890;80;21303;-89
2021/03/17 04:50:26;;;;;;;86.57;42.13;;;;;;;1.32;84.43;98599.20;2216337;80;21318;-91
2021/03/17 04:53:28;;;;;;;73.05;36.98;;;;;;;1.35;84.41;98598.94;2216110;80;21578;-90
2021/03/17 04:56:30;;;;;;;63.68;31.05;;;;;;;1.33;84.34;98604.23;2216267;80;21282;-90
2021/03/17 04:59:31;;;;;;;72.35;33.78;;;;;;;1.32;84.35;98606.94;2215791;80;21270;-90
2021/03/17 05:02:33;;;;;;;76.40;37.48;;;;;;;1.28;84.22;98606.83;2215842;80;21302;-90
2021/03/17 05:05:34;;;;;;;73.60;35.50;;;;;;;1.25;84.38;98608.37;2216094;80;21619;-89
2021/03/17 05:08:36;;;;;;;67.75;33.15;;;;;;;1.27;84.25;98603.90;2215900;80;21317;-90
2021/03/17 05:11:38;;;;;;;78.62;40.03;;;;;;;1.27;84.32;98617.61;2215933;80;21267;-90
2021/03/17 05:14:39;;;;;;;68.30;34.05;;;;;;;1.29;84.41;98617.05;2215856;80;21135;-90
2021/03/17 05:17:41;;;;;;;74.95;36.77;;;;;;;1.31;84.31;98616.91;2215955;80;21757;-89
2021/03/17 05:20:42;;;;;;;64.20;32.33;;;;;;;1.29;84.48;98623.50;2215896;80;21623;-90
2021/03/17 05:23:44;;;;;;;80.05;38.80;;;;;;;1.30;84.27;98617.39;2216089;80;21713;-90
2021/03/17 05:26:45;;;;;;;68.67;33.88;;;;;;;1.34;84.23;98618.77;2216119;80;21289;-90
2021/03/17 05:29:47;;;;;;;77.97;38.45;;;;;;;1.34;84.44;98620.05;2216031;80;21175;-89
2021/03/17 05:32:48;;;;;;;69.50;35.68;;;;;;;1.34;84.14;98621.81;2218049;80;21571;-90
2021/03/17 05:35:50;;;;;;;62.27;31.37;;;;;;;1.37;84.29;98626.72;2217570;80;21096;-90
2021/03/17 05:38:52;;;;;;;66.40;32.30;;;;;;;1.41;84.13;98626.84;2218347;80;21120;-90
2021/03/17 05:41:53;;;;;;;56.58;29.12;;;;;;;1.41;84.02;98621.68;2217032;80;21142;-90
2021/03/17 05:44:55;;;;;;;76.42;42.15;;;;;;;1.45;84.08;98629.50;2218024;80;21132;-91
2021/03/17 05:47:56;;;;;;;71.90;39.70;;;;;;;1.42;83.87;98624.60;2216465;80;21789;-90
2021/03/17 05:50:58;;;;;;;63.23;31.90;;;;;;;1.46;83.83;98631.14;2216671;80;21258;-90
2021/03/17 05:54:00;;;;;;;61.63;30.05;;;;;;;1.48;84.12;98640.08;2216585;80;21308;-90
2021/03/17 05:57:02;;;;;;;63.42;30.80;;;;;;;1.45;84.20;98639.01;2216028;80;21278;-90
2021/03/17 06:00:03;;;;;;;62.38;30.32;;;;;;;1.35;83.99;98644.91;2216132;80;21277;-89
2021/03/17 06:03:05;;;;;;;76.07;39.50;;;;;;;1.32;84.21;98639.19;2216472;80;21172;-89
2021/03/17 06:06:07;;;;;;;67.45;30.08;;;;;;;1.37;84.08;98636.60;2217339;80;21373;-89
2021/03/17 06:09:08;;;;;;;67.72;32.95;;;;;;;1.43;84.14;98637.84;2217777;80;21360;-88
2021/03/17 06:12:10;;;;;;;51.85;27.67;;;;;;;1.46;83.88;98641.46;2219452;80;21297;-89
2021/03/17 06:15:12;;;;;;;67.58;33.67;;;;;;;1.50;83.94;98646.74;2219257;80;21274;-89
2021/03/17 06:18:13;;;;;;;49.10;23.45;;;;;;;1.50;83.98;98651.91;2219635;80;21290;-90
2021/03/17 06:21:18;;;;;;;53.85;29.15;;;;;;;1.50;83.89;98653.66;2219316;80;21321;-89
2021/03/17 06:24:20;;;;;;;68.42;32.17;;;;;;;1.48;84.04;98662.01;2219575;80;21642;-91
2021/03/17 06:27:22;;;;;;;55.45;26.35;;;;;;;1.46;84.15;98658.70;2219405;80;21626;-92
2021/03/17 06:30:24;;;;;;;53.30;28.00;;;;;;;1.41;84.49;98665.55;2219500;80;21618;-93
2021/03/17 06:33:26;;;;;;;49.75;27.30;;;;;;;1.40;84.33;98663.91;2219590;80;21289;-92
2021/03/17 06:36:27;;;;;;;52.78;27.32;;;;;;;1.43;84.62;98667.05;2219535;80;21266;-92
2021/03/17 06:39:29;;;;;;;53.48;27.00;;;;;;;1.43;84.28;98665.76;2219440;80;21194;-90
2021/03/17 06:42:30;;;;;;;37.63;20.00;;;;;;;1.43;84.41;98672.69;2219679;80;21719;-94
2021/03/17 06:45:32;;;;;;;51.25;25.37;;;;;;;1.43;84.31;98667.05;2219675;80;21290;-94
2021/03/17 06:48:33;;;;;;;44.30;21.75;;;;;;;1.52;84.28;98681.45;2219369;80;21179;-94
2021/03/17 06:51:35;;;;;;;56.10;27.02;;;;;;;1.60;83.86;98677.78;2219430;80;21770;-91
2021/03/17 07:43:09;;;;;;;30.17;18.42;;;;;;;2.57;79.39;98706.36;2176617;80;24138;-86
2021/03/17 07:46:10;;;;;;;32.13;17.92;;;;;;;2.51;79.13;98707.67;2187733;81;21753;-90
2021/03/17 07:49:12;;;;;;;28.47;17.25;;;;;;;2.52;79.66;98717.54;2181183;81;21270;-83
2021/03/17 07:52:14;;;;;;;27.07;14.93;;;;;;;2.42;78.86;98711.03;2168992;81;21670;-82
2021/03/17 07:55:15;;;;;;;24.50;14.30;;;;;;;2.31;79.17;98719.34;2168295;81;21265;-90
2021/03/17 07:58:17;;;;;;;22.70;13.20;;;;;;;2.22;79.04;98715.27;2188461;81;21285;-85
2021/03/17 08:01:18;;;;;;;25.65;13.72;;;;;;;2.19;79.11;98720.67;2179781;81;21606;-84
2021/03/17 08:04:19;;;;;;;25.52;13.43;;;;;;;2.16;78.93;98717.53;2195942;81;21733;-84
2021/03/17 08:07:21;;;;;;;29.80;16.07;;;;;;;2.09;79.23;98715.92;2196610;81;21535;-84
2021/03/17 08:10:22;;;;;;;24.75;15.03;;;;;;;2.17;79.72;98715.30;2196364;81;21317;-84
2021/03/17 08:13:24;;;;;;;27.55;14.15;;;;;;;2.24;79.28;98718.54;2195812;81;21282;-84
2021/03/17 08:16:25;;;;;;;24.92;14.53;;;;;;;2.21;78.65;98729.61;2171060;81;21091;-84
2021/03/17 08:19:27;;;;;;;24.63;15.10;;;;;;;2.30;78.57;98713.35;2158437;82;21171;-82
2021/03/17 08:22:28;;;;;;;22.60;13.88;;;;;;;2.37;78.58;98723.97;2158388;80;21170;-83
2021/03/17 08:25:29;;;;;;;24.12;15.68;;;;;;;2.38;78.25;98724.31;2158648;82;21123;-84
2021/03/17 08:28:31;;;;;;;27.05;14.50;;;;;;;2.42;78.73;98727.83;2158509;80;21736;-85
2021/03/17 08:31:32;;;;;;;23.15;13.35;;;;;;;2.56;77.31;98730.54;2158850;82;21198;-88
2021/03/17 08:34:34;;;;;;;19.77;12.70;;;;;;;2.66;77.44;98717.22;2158595;82;21285;-89
2021/03/17 08:37:35;;;;;;;21.35;12.98;;;;;;;2.76;76.58;98730.19;2175031;81;21697;-83
2021/03/17 08:40:37;;;;;;;20.82;14.43;;;;;;;2.85;76.55;98721.64;2170268;80;21296;-85
2021/03/17 08:54:41;;;;;;;21.15;14.83;;;;;;;4.08;74.19;98725.97;2274312;78;23125;-85
2021/03/17 08:57:43;;;;;;;29.85;18.52;;;;;;;4.03;73.74;98727.69;2240508;79;21582;-84
2021/03/17 09:00:45;;;;;;;31.23;18.52;;;;;;;3.96;73.71;98723.53;2240023;79;21309;-84
2021/03/17 09:03:51;;;;;;;24.90;13.83;;;;;;;3.85;73.65;98724.16;2239982;79;21172;-86
2021/03/17 09:06:53;;;;;;;18.77;13.48;;;;;;;3.73;72.79;98727.81;2240133;79;21767;-87
2021/03/17 09:09:54;;;;;;;18.05;11.55;;;;;;;3.64;72.08;98727.67;2240208;79;21160;-87
2021/03/17 09:12:56;;;;;;;14.33;9.53;;;;;;;3.62;71.83;98729.58;2240120;79;21278;-86
2021/03/17 09:15:58;;;;;;;23.25;14.35;;;;;;;3.66;71.18;98731.44;2240307;79;21297;-86
2021/03/17 09:18:59;;;;;;;25.20;15.43;;;;;;;3.67;71.90;98736.48;2240626;79;21290;-83
2021/03/17 09:23:26;;;;;;;24.25;15.70;;;;;;;3.63;72.57;98728.63;2273337;77;23846;-87
2021/03/17 09:26:27;;;;;;;20.92;14.38;;;;;;;3.55;72.78;98732.36;2269684;78;21279;-84
2021/03/17 09:29:30;;;;;;;28.60;15.08;;;;;;;3.64;72.23;98735.91;2270136;78;21305;-86
2021/03/17 09:32:33;;;;;;;21.93;14.10;;;;;;;3.61;72.31;98735.72;2270076;78;21309;-86
2021/03/17 09:35:35;;;;;;;24.00;15.88;;;;;;;3.63;71.29;98736.39;2270411;78;21721;-90
2021/03/17 09:38:37;;;;;;;26.87;16.95;;;;;;;3.60;71.66;98742.33;2270542;78;21554;-86
2021/03/17 09:41:46;;;;;;;25.48;15.83;;;;;;;3.49;71.37;98739.39;2270241;78;21198;-86
2021/03/17 09:44:42;;;;;;;23.95;14.98;;;;;;;3.42;71.31;98746.05;2268551;78;21773;-87
2021/03/17 09:47:44;;;;;;;26.37;17.50;;;;;;;3.23;71.01;98757.17;2270340;78;21292;-89
2021/03/17 09:50:47;;;;;;;25.12;17.00;;;;;;;3.09;71.74;98772.56;2270822;78;21155;-89
2021/03/17 09:54:03;;;;;;;;;;;;;;;;;;;;;
2021/03/17 09:57:01;;;;;;;25.23;16.02;;;;;;;2.84;71.87;98768.67;2268014;78;21301;-90
2021/03/17 10:00:05;;;;;;;21.82;12.65;;;;;;;2.88;71.01;98766.64;2269417;78;21167;-89
2021/03/17 10:03:09;;;;;;;18.95;11.70;;;;;;;3.00;69.82;98759.12;2270410;78;21268;-89
2021/03/17 10:06:09;;;;;;;28.20;16.20;;;;;;;3.13;70.04;98762.80;2269773;78;21269;-90
2021/03/17 10:09:11;;;;;;;26.10;15.32;;;;;;;3.10;70.63;98763.85;2269620;78;21305;-87
2021/03/17 10:12:15;;;;;;;28.52;17.62;;;;;;;3.22;70.77;98764.59;2270379;78;21298;-88
2021/03/17 10:15:18;;;;;;;22.20;14.70;;;;;;;3.28;69.99;98756.28;2147962;83;21210;-86
2021/03/17 10:18:30;;;;;;;;;;;;;;;;;;;;;
2021/03/17 10:21:31;;;;;;;22.58;16.27;;;;;;;3.61;69.03;98749.14;2191738;79;28264;-89
2021/03/17 10:24:33;;;;;;;18.87;13.38;;;;;;;3.78;67.90;98749.77;2179053;82;21285;-86
2021/03/17 10:27:36;;;;;;;18.55;12.58;;;;;;;3.83;68.72;98759.23;2179871;82;21167;-87
2021/03/17 10:30:38;;;;;;;21.37;13.30;;;;;;;3.89;68.66;98750.93;2149504;82;21782;-91
2021/03/17 10:33:41;;;;;;;20.17;13.22;;;;;;;3.90;67.81;98760.33;2179430;82;21693;-87
2021/03/17 10:36:44;;;;;;;24.20;15.35;;;;;;;3.87;68.57;98755.91;2177975;82;21609;-91
2021/03/17 10:39:46;;;;;;;16.30;10.82;;;;;;;3.87;68.55;98759.80;2177974;82;21165;-90
2021/03/17 10:42:48;;;;;;;16.25;11.28;;;;;;;3.80;66.33;98754.81;2178095;82;21321;-86
2021/03/17 10:45:50;;;;;;;15.32;11.43;;;;;;;3.79;66.81;98757.88;2177992;82;21326;-86
2021/03/17 10:52:07;;;;;;;15.00;8.80;;;;;;;3.83;66.57;98750.17;2162828;82;21606;-84
2021/03/17 10:55:18;;;;;;;;;;;;;;;;;;;;;
2021/03/17 10:58:13;;;;;;;17.37;11.18;;;;;;;3.74;65.59;98748.39;2172747;82;21210;-88
2021/03/17 11:01:15;;;;;;;15.95;10.88;;;;;;;3.78;66.43;98740.70;2177823;82;21293;-88
2021/03/17 11:04:19;;;;;;;16.52;11.68;;;;;;;3.81;66.62;98737.84;2178163;82;21313;-84
2021/03/17 11:07:23;;;;;;;15.15;10.23;;;;;;;3.80;66.32;98740.56;2178636;82;21258;-88
2021/03/17 11:10:25;;;;;;;16.60;10.65;;;;;;;3.74;65.64;98743.20;2177561;81;21575;-83
2021/03/17 11:13:27;;;;;;;16.37;10.18;;;;;;;3.70;65.74;98747.03;2178560;82;21174;-83
2021/03/17 11:16:37;;;;;;;15.18;10.53;;;;;;;3.70;65.79;98740.56;2178773;82;21195;-84
2021/03/17 11:19:42;;;;;;;14.00;10.32;;;;;;;3.68;65.25;98745.88;2178237;81;21211;-83
2021/03/17 11:22:44;;;;;;;14.98;9.88;;;;;;;3.75;65.16;98742.73;2178489;82;21685;-86
2021/03/17 11:25:47;;;;;;;14.60;10.72;;;;;;;3.75;64.49;98748.76;2179128;81;21163;-84
2021/03/17 11:28:49;;;;;;;15.93;10.65;;;;;;;3.75;63.77;98756.98;2179155;81;21309;-87
2021/03/17 11:31:51;;;;;;;21.30;14.20;;;;;;;3.68;63.88;98745.06;2178439;82;21305;-86
2021/03/17 11:34:53;;;;;;;15.28;10.78;;;;;;;3.65;64.30;98750.49;2178810;82;21317;-87
2021/03/17 11:37:54;;;;;;;13.25;10.38;;;;;;;3.61;64.97;98745.25;2177959;81;21290;-88
2021/03/17 11:40:57;;;;;;;13.13;10.43;;;;;;;3.59;65.44;98740.22;2178575;81;21269;-89
2021/03/17 11:44:00;;;;;;;15.98;11.12;;;;;;;3.57;64.68;98751.67;2178516;82;21158;-87
2021/03/17 11:47:04;;;;;;;14.03;10.13;;;;;;;3.48;64.76;98750.70;2178839;82;21302;-84
2021/03/17 11:50:06;;;;;;;12.78;10.32;;;;;;;3.43;64.51;98751.56;2178136;82;21127;-86
2021/03/17 11:53:08;;;;;;;14.47;10.80;;;;;;;3.38;64.61;98760.19;2177520;82;21151;-88
2021/03/17 11:56:09;;;;;;;14.75;10.90;;;;;;;3.32;63.71;98756.86;2177991;82;21143;-88
2021/03/17 11:59:11;;;;;;;13.68;10.48;;;;;;;3.34;63.88;98748.00;2177968;81;21167;-88
2021/03/17 12:02:12;;;;;;;14.25;10.15;;;;;;;3.41;62.54;98756.06;2177545;81;21326;-91
2021/03/17 12:05:14;;;;;;;21.65;13.72;;;;;;;3.52;63.50;98741.70;2178425;81;21289;-85
2021/03/17 12:08:16;;;;;;;24.35;15.05;;;;;;;3.62;63.63;98739.94;2177649;81;21148;-85
2021/03/17 12:11:25;;;;;;;29.72;16.00;;;;;;;3.67;63.76;98748.13;2177207;81;21148;-86
2021/03/17 12:14:35;;;;;;;23.87;14.33;;;;;;;3.65;63.04;98742.25;2134992;82;21116;-83
2021/03/17 12:17:41;;;;;;;14.93;11.70;;;;;;;3.66;63.40;98747.80;2172026;82;21152;-86
2021/03/17 12:20:43;;;;;;;22.42;15.35;;;;;;;3.64;63.39;98743.20;2167353;81;21738;-85
2021/03/17 12:23:44;;;;;;;17.07;10.90;;;;;;;3.66;64.00;98739.21;2160206;82;21329;-84
2021/03/17 12:26:46;;;;;;;13.08;8.85;;;;;;;3.76;63.29;98749.58;2159930;82;21278;-82
2021/03/17 12:29:48;;;;;;;11.28;9.83;;;;;;;3.85;63.07;98731.45;2159775;82;21302;-83
2021/03/17 12:32:50;;;;;;;12.28;9.03;;;;;;;3.96;63.42;98731.78;2159557;82;21143;-85
2021/03/17 12:35:51;;;;;;;12.75;9.35;;;;;;;4.13;63.46;98727.68;2160084;82;21270;-82
2021/03/17 12:38:53;;;;;;;17.12;10.88;;;;;;;4.24;62.37;98726.23;2159731;82;21318;-83
2021/03/17 12:41:57;;;;;;;11.40;9.03;;;;;;;4.32;63.56;98730.23;2160045;82;21314;-82
2021/03/17 12:45:00;;;;;;;15.58;10.43;;;;;;;4.32;63.70;98733.31;2159899;82;21176;-83
2021/03/17 12:48:02;;;;;;;14.47;10.08;;;;;;;4.27;64.05;98741.49;2159755;82;21164;-84
2021/03/17 12:51:03;;;;;;;10.43;8.33;;;;;;;4.22;63.58;98742.41;2159852;82;21567;-82
2021/03/17 12:54:05;;;;;;;12.82;9.40;;;;;;;4.12;63.56;98750.19;2159752;82;21298;-82
2021/03/17 12:57:07;;;;;;;10.88;8.93;;;;;;;4.00;64.42;98748.67;2160039;82;21624;-82
2021/03/17 13:00:08;;;;;;;9.63;8.48;;;;;;;3.94;64.44;98740.98;2159995;82;21326;-83
2021/03/17 13:03:19;;;;;;;9.43;7.85;;;;;;;3.90;64.00;98749.16;2160099;81;21278;-83
2021/03/17 13:06:21;;;;;;;7.08;6.40;;;;;;;3.89;63.37;98750.93;2159915;82;21330;-85
2021/03/17 13:09:22;;;;;;;8.30;7.37;;;;;;;3.86;63.50;98748.62;2160189;82;21294;-82
2021/03/17 13:12:24;;;;;;;14.38;8.70;;;;;;;3.90;63.36;98755.62;2160069;82;21136;-82
2021/03/17 13:15:26;;;;;;;9.75;7.97;;;;;;;3.89;63.03;98760.47;2160455;82;21259;-84
2021/03/17 13:18:27;;;;;;;10.75;8.70;;;;;;;3.91;63.36;98750.79;2160086;82;21283;-84
2021/03/17 13:21:29;;;;;;;7.40;6.45;;;;;;;3.93;62.33;98760.53;2172974;81;21309;-85
2021/03/17 13:24:30;;;;;;;7.40;6.62;;;;;;;3.96;62.17;98749.91;2177319;81;21136;-83
2021/03/17 13:27:32;;;;;;;14.93;10.13;;;;;;;3.99;62.28;98754.33;2177226;81;21155;-82
2021/03/17 13:30:34;;;;;;;13.03;9.30;;;;;;;4.03;62.64;98758.78;2178053;81;21132;-81
2021/03/17 13:33:35;;;;;;;8.58;7.67;;;;;;;4.03;62.71;98762.67;2178064;81;21147;-83
2021/03/17 13:36:37;;;;;;;13.20;9.53;;;;;;;4.06;62.96;98764.98;2177956;81;21302;-85
2021/03/17 13:39:39;;;;;;;14.65;11.48;;;;;;;4.10;62.84;98749.96;2177787;81;21660;-84
2021/03/17 13:42:48;;;;;;;12.45;9.23;;;;;;;4.12;63.22;98754.08;2177755;81;21575;-83
2021/03/17 13:46:11;;;;;;;10.82;8.65;;;;;;;4.14;62.30;98752.64;2177648;82;21096;-83
2021/03/17 13:49:27;;;;;;;14.23;10.32;;;;;;;4.11;62.12;98758.89;2177640;82;21163;-86
2021/03/17 13:52:37;;;;;;;12.35;9.60;;;;;;;4.11;62.40;98764.55;2178720;81;21686;-85
2021/03/17 13:55:47;;;;;;;10.80;9.60;;;;;;;4.10;62.69;98770.21;2179991;82;21262;-82
2021/03/17 13:58:49;;;;;;;19.05;12.73;;;;;;;4.08;62.68;98772.13;2180326;82;21294;-81
2021/03/17 14:01:50;;;;;;;15.08;11.15;;;;;;;4.09;62.90;98760.80;2178527;82;21321;-86
2021/03/17 14:04:55;;;;;;;16.57;12.45;;;;;;;4.09;63.17;98763.88;2177455;82;21638;-86
2021/03/17 14:07:57;;;;;;;32.33;17.92;;;;;;;4.05;63.43;98770.30;2177730;81;21317;-88
2021/03/17 14:10:58;;;;;;;24.02;15.50;;;;;;;4.05;63.76;98778.08;2177288;82;21321;-82
2021/03/17 14:14:04;;;;;;;23.98;13.35;;;;;;;4.04;63.78;98771.27;2177088;81;21160;-82
2021/03/17 14:17:05;;;;;;;21.57;12.90;;;;;;;4.03;64.18;98779.52;2177051;82;21155;-82
2021/03/17 14:20:07;;;;;;;17.80;13.20;;;;;;;4.04;64.84;98774.67;2174021;81;21181;-81
2021/03/17 14:23:09;;;;;;;14.03;11.12;;;;;;;4.11;64.57;98778.80;2159995;82;21157;-80
2021/03/17 14:26:10;;;;;;;13.10;10.00;;;;;;;4.16;64.62;98778.75;2159782;82;21188;-82
2021/03/17 14:29:12;;;;;;;26.20;15.68;;;;;;;4.20;64.67;98780.58;2159886;82;21140;-81
2021/03/17 14:32:16;;;;;;;18.00;12.90;;;;;;;4.26;65.08;98777.45;2160265;82;21294;-87
2021/03/17 14:35:21;;;;;;;14.90;10.50;;;;;;;4.40;64.74;98782.70;2160378;82;21168;-87
2021/03/17 14:38:22;;;;;;;16.93;11.48;;;;;;;4.44;64.32;98781.45;2160400;82;21302;-87
2021/03/17 14:41:25;;;;;;;17.35;11.20;;;;;;;4.39;64.14;98790.95;2160324;82;21282;-86
2021/03/17 14:44:26;;;;;;;18.50;13.22;;;;;;;4.26;64.37;98787.81;2159770;82;21180;-85
2021/03/17 14:47:28;;;;;;;14.70;10.15;;;;;;;4.16;64.68;98788.30;2160029;82;21563;-84
2021/03/17 14:50:30;;;;;;;19.98;11.80;;;;;;;4.01;64.71;98800.83;2160047;82;21262;-83
2021/03/17 14:53:31;;;;;;;24.92;13.10;;;;;;;3.88;65.20;98798.99;2159917;82;21160;-90
2021/03/17 14:56:33;;;;;;;13.05;9.85;;;;;;;3.79;65.48;98799.80;2160261;82;21109;-89
2021/03/17 14:59:35;;;;;;;13.25;9.68;;;;;;;3.71;65.42;98803.05;2139002;82;21282;-84
2021/03/17 15:02:36;;;;;;;16.90;10.78;;;;;;;3.58;65.69;98814.97;2160321;82;21140;-87
2021/03/17 15:05:38;;;;;;;25.57;12.37;;;;;;;3.50;65.73;98807.52;2160163;82;21817;-83
2021/03/17 15:08:39;;;;;;;22.93;11.93;;;;;;;3.47;66.05;98819.41;2160063;82;21255;-84
2021/03/17 15:11:41;;;;;;;32.78;16.23;;;;;;;3.41;66.00;98817.70;2160475;82;21290;-86
2021/03/17 15:14:43;;;;;;;24.27;12.43;;;;;;;3.38;66.19;98817.13;2160611;82;21278;-86
2021/03/17 15:17:47;;;;;;;19.95;9.73;;;;;;;3.35;66.51;98816.11;2160266;82;21124;-84